sensor_id;sensor_type;location;lat;lon;timestamp;temperature;humidity
4530;DHT22;2277;51.626;7.516;2022-09-09T00:02:20;18.70;99.90
4530;DHT22;2277;51.626;7.516;2022-09-09T00:05:08;18.70;99.90
4530;DHT22;2277;51.626;7.516;2022-09-09T00:07:47;18.70;99.90
4530;DHT22;2277;51.626;7.516;2022-09-09T00:10:26;18.60;99.90
4530;DHT22;2277;51.626;7.516;2022-09-09T00:13:05;18.50;99.90
4530;DHT22;2277;51.626;7.516;2022-09-09T00:21:11;18.00;99.90
4530;DHT22;2277;51.626;7.516;2022-09-09T00:23:39;18.00;99.90
4530;DHT22;2277;51.626;7.516;2022-09-09T00:26:23;18.20;99.90
4530;DHT22;2277;51.626;7.516;2022-09-09T00:31:31;18.00;99.90
4530;DHT22;2277;51.626;7.516;2022-09-09T00:36:39;18.10;99.90
4530;DHT22;2277;51.626;7.516;2022-09-09T00:39:05;18.10;99.90
4530;DHT22;2277;51.626;7.516;2022-09-09T00:44:31;18.00;99.90
4530;DHT22;2277;51.626;7.516;2022-09-09T00:47:23;17.90;99.90
4530;DHT22;2277;51.626;7.516;2022-09-09T00:50:10;18.00;99.90
4530;DHT22;2277;51.626;7.516;2022-09-09T00:55:21;17.80;99.90
4530;DHT22;2277;51.626;7.516;2022-09-09T00:57:52;17.80;99.90
4530;DHT22;2277;51.626;7.516;2022-09-09T01:00:25;17.80;99.90
4530;DHT22;2277;51.626;7.516;2022-09-09T01:03:15;17.90;99.90
4530;DHT22;2277;51.626;7.516;2022-09-09T01:08:52;17.90;99.90
4530;DHT22;2277;51.626;7.516;2022-09-09T01:11:35;18.00;99.90
4530;DHT22;2277;51.626;7.516;2022-09-09T01:28:00;17.90;99.90
4530;DHT22;2277;51.626;7.516;2022-09-09T01:30:26;17.90;99.90
4530;DHT22;2277;51.626;7.516;2022-09-09T01:32:58;18.00;99.90
4530;DHT22;2277;51.626;7.516;2022-09-09T01:35:40;18.00;99.90
4530;DHT22;2277;51.626;7.516;2022-09-09T01:38:08;17.90;99.90
4530;DHT22;2277;51.626;7.516;2022-09-09T01:40:34;17.90;99.90
4530;DHT22;2277;51.626;7.516;2022-09-09T01:43:00;17.80;99.90
4530;DHT22;2277;51.626;7.516;2022-09-09T01:45:26;17.80;99.90
4530;DHT22;2277;51.626;7.516;2022-09-09T01:47:52;17.90;99.90
4530;DHT22;2277;51.626;7.516;2022-09-09T01:50:18;17.90;99.90
4530;DHT22;2277;51.626;7.516;2022-09-09T01:52:48;18.00;99.90
4530;DHT22;2277;51.626;7.516;2022-09-09T01:55:14;18.00;99.90
4530;DHT22;2277;51.626;7.516;2022-09-09T01:58:28;18.00;99.90
4530;DHT22;2277;51.626;7.516;2022-09-09T02:03:28;18.10;99.90
4530;DHT22;2277;51.626;7.516;2022-09-09T02:08:57;18.00;99.90
4530;DHT22;2277;51.626;7.516;2022-09-09T02:11:25;18.10;99.90
4530;DHT22;2277;51.626;7.516;2022-09-09T02:13:56;18.10;99.90
4530;DHT22;2277;51.626;7.516;2022-09-09T02:19:09;18.10;99.90
4530;DHT22;2277;51.626;7.516;2022-09-09T02:21:39;18.10;99.90
4530;DHT22;2277;51.626;7.516;2022-09-09T02:24:08;18.00;99.90
4530;DHT22;2277;51.626;7.516;2022-09-09T02:26:39;18.00;99.90
4530;DHT22;2277;51.626;7.516;2022-09-09T02:29:09;17.90;99.90
4530;DHT22;2277;51.626;7.516;2022-09-09T02:31:38;17.90;99.90
4530;DHT22;2277;51.626;7.516;2022-09-09T02:34:05;18.00;99.90
4530;DHT22;2277;51.626;7.516;2022-09-09T02:36:33;18.00;99.90
4530;DHT22;2277;51.626;7.516;2022-09-09T02:39:00;18.00;99.90
4530;DHT22;2277;51.626;7.516;2022-09-09T02:41:31;18.10;99.90
4530;DHT22;2277;51.626;7.516;2022-09-09T02:43:57;18.10;99.90
4530;DHT22;2277;51.626;7.516;2022-09-09T02:46:36;18.20;99.90
4530;DHT22;2277;51.626;7.516;2022-09-09T02:49:11;18.20;99.90
4530;DHT22;2277;51.626;7.516;2022-09-09T02:51:51;18.20;99.90
4530;DHT22;2277;51.626;7.516;2022-09-09T02:54:29;18.10;99.90
4530;DHT22;2277;51.626;7.516;2022-09-09T02:57:10;17.90;99.90
4530;DHT22;2277;51.626;7.516;2022-09-09T02:59:37;17.90;99.90
4530;DHT22;2277;51.626;7.516;2022-09-09T03:02:03;17.90;99.90
4530;DHT22;2277;51.626;7.516;2022-09-09T03:04:29;17.90;99.90
4530;DHT22;2277;51.626;7.516;2022-09-09T03:06:57;17.90;99.90
4530;DHT22;2277;51.626;7.516;2022-09-09T03:09:23;18.00;99.90
4530;DHT22;2277;51.626;7.516;2022-09-09T03:15:10;17.90;99.90
4530;DHT22;2277;51.626;7.516;2022-09-09T03:17:36;17.90;99.90
4530;DHT22;2277;51.626;7.516;2022-09-09T03:20:03;17.90;99.90
4530;DHT22;2277;51.626;7.516;2022-09-09T03:22:29;17.80;99.90
4530;DHT22;2277;51.626;7.516;2022-09-09T03:24:55;17.90;99.90
4530;DHT22;2277;51.626;7.516;2022-09-09T03:27:20;17.90;99.90
4530;DHT22;2277;51.626;7.516;2022-09-09T03:29:46;17.90;99.90
4530;DHT22;2277;51.626;7.516;2022-09-09T03:32:12;17.90;99.90
4530;DHT22;2277;51.626;7.516;2022-09-09T03:34:38;17.90;99.90
4530;DHT22;2277;51.626;7.516;2022-09-09T03:37:07;17.90;99.90
4530;DHT22;2277;51.626;7.516;2022-09-09T03:39:32;17.80;99.90
4530;DHT22;2277;51.626;7.516;2022-09-09T03:41:58;17.80;99.90
4530;DHT22;2277;51.626;7.516;2022-09-09T03:44:23;17.70;99.90
4530;DHT22;2277;51.626;7.516;2022-09-09T03:46:49;17.70;99.90
4530;DHT22;2277;51.626;7.516;2022-09-09T03:49:14;17.50;99.90
4530;DHT22;2277;51.626;7.516;2022-09-09T03:51:40;17.50;99.90
4530;DHT22;2277;51.626;7.516;2022-09-09T03:54:07;17.40;99.90
4530;DHT22;2277;51.626;7.516;2022-09-09T03:56:36;17.40;99.90
4530;DHT22;2277;51.626;7.516;2022-09-09T03:59:02;17.40;99.90
4530;DHT22;2277;51.626;7.516;2022-09-09T04:01:28;17.40;99.90
4530;DHT22;2277;51.626;7.516;2022-09-09T04:03:54;17.40;99.90
4530;DHT22;2277;51.626;7.516;2022-09-09T04:06:22;17.40;99.90
4530;DHT22;2277;51.626;7.516;2022-09-09T04:08:48;17.40;99.90
4530;DHT22;2277;51.626;7.516;2022-09-09T04:11:14;17.50;99.90
4530;DHT22;2277;51.626;7.516;2022-09-09T04:13:41;17.50;99.90
4530;DHT22;2277;51.626;7.516;2022-09-09T04:16:09;17.40;99.90
4530;DHT22;2277;51.626;7.516;2022-09-09T04:18:35;17.40;99.90
4530;DHT22;2277;51.626;7.516;2022-09-09T04:21:01;17.50;99.90
4530;DHT22;2277;51.626;7.516;2022-09-09T04:23:29;17.50;99.90
4530;DHT22;2277;51.626;7.516;2022-09-09T04:25:56;17.60;99.90
4530;DHT22;2277;51.626;7.516;2022-09-09T04:28:24;17.60;99.90
4530;DHT22;2277;51.626;7.516;2022-09-09T04:30:50;17.70;99.90
4530;DHT22;2277;51.626;7.516;2022-09-09T04:33:16;17.70;99.90
4530;DHT22;2277;51.626;7.516;2022-09-09T04:35:47;17.70;99.90
4530;DHT22;2277;51.626;7.516;2022-09-09T04:38:13;17.80;99.90
4530;DHT22;2277;51.626;7.516;2022-09-09T04:40:41;17.80;99.90
4530;DHT22;2277;51.626;7.516;2022-09-09T04:43:08;17.90;99.90
4530;DHT22;2277;51.626;7.516;2022-09-09T04:45:34;17.80;99.90
4530;DHT22;2277;51.626;7.516;2022-09-09T04:48:00;17.80;99.90
4530;DHT22;2277;51.626;7.516;2022-09-09T04:50:27;17.70;99.90
4530;DHT22;2277;51.626;7.516;2022-09-09T04:52:54;17.70;99.90
4530;DHT22;2277;51.626;7.516;2022-09-09T04:55:19;17.70;99.90
4530;DHT22;2277;51.626;7.516;2022-09-09T04:57:45;17.70;99.90
4530;DHT22;2277;51.626;7.516;2022-09-09T05:00:11;17.70;99.90
4530;DHT22;2277;51.626;7.516;2022-09-09T05:02:38;17.70;99.90
4530;DHT22;2277;51.626;7.516;2022-09-09T05:05:04;17.70;99.90
4530;DHT22;2277;51.626;7.516;2022-09-09T05:07:30;17.70;99.90
4530;DHT22;2277;51.626;7.516;2022-09-09T05:09:56;17.70;99.90
4530;DHT22;2277;51.626;7.516;2022-09-09T05:12:23;17.80;99.90
4530;DHT22;2277;51.626;7.516;2022-09-09T05:14:49;17.80;99.90
4530;DHT22;2277;51.626;7.516;2022-09-09T05:17:15;17.80;99.90
4530;DHT22;2277;51.626;7.516;2022-09-09T05:19:41;17.80;99.90
4530;DHT22;2277;51.626;7.516;2022-09-09T05:22:08;17.70;99.90
4530;DHT22;2277;51.626;7.516;2022-09-09T05:24:34;17.70;99.90
4530;DHT22;2277;51.626;7.516;2022-09-09T05:26:59;17.70;99.90
4530;DHT22;2277;51.626;7.516;2022-09-09T05:29:27;17.80;99.90
4530;DHT22;2277;51.626;7.516;2022-09-09T05:31:52;17.80;99.90
4530;DHT22;2277;51.626;7.516;2022-09-09T05:34:18;17.80;99.90
4530;DHT22;2277;51.626;7.516;2022-09-09T05:36:44;17.80;99.90
4530;DHT22;2277;51.626;7.516;2022-09-09T05:39:09;17.80;99.90
4530;DHT22;2277;51.626;7.516;2022-09-09T05:41:37;17.70;99.90
4530;DHT22;2277;51.626;7.516;2022-09-09T05:44:02;17.70;99.90
4530;DHT22;2277;51.626;7.516;2022-09-09T05:46:28;17.70;99.90
4530;DHT22;2277;51.626;7.516;2022-09-09T05:48:54;17.70;99.90
4530;DHT22;2277;51.626;7.516;2022-09-09T05:51:23;17.80;99.90
4530;DHT22;2277;51.626;7.516;2022-09-09T05:53:50;17.90;99.90
4530;DHT22;2277;51.626;7.516;2022-09-09T05:56:24;17.90;99.90
4530;DHT22;2277;51.626;7.516;2022-09-09T05:58:51;17.90;99.90
4530;DHT22;2277;51.626;7.516;2022-09-09T06:01:28;17.90;99.90
4530;DHT22;2277;51.626;7.516;2022-09-09T06:03:54;17.80;99.90
4530;DHT22;2277;51.626;7.516;2022-09-09T06:06:23;17.70;99.90
4530;DHT22;2277;51.626;7.516;2022-09-09T06:08:54;17.80;99.90
4530;DHT22;2277;51.626;7.516;2022-09-09T06:11:26;17.80;99.90
4530;DHT22;2277;51.626;7.516;2022-09-09T06:13:52;17.80;99.90
4530;DHT22;2277;51.626;7.516;2022-09-09T06:16:21;17.80;99.90
4530;DHT22;2277;51.626;7.516;2022-09-09T06:18:49;17.80;99.90
4530;DHT22;2277;51.626;7.516;2022-09-09T06:21:20;17.70;99.90
4530;DHT22;2277;51.626;7.516;2022-09-09T06:23:47;17.60;99.90
4530;DHT22;2277;51.626;7.516;2022-09-09T06:26:15;17.50;99.90
4530;DHT22;2277;51.626;7.516;2022-09-09T06:28:43;17.60;99.90
4530;DHT22;2277;51.626;7.516;2022-09-09T06:34:31;17.70;99.90
4530;DHT22;2277;51.626;7.516;2022-09-09T06:36:57;17.70;99.90
4530;DHT22;2277;51.626;7.516;2022-09-09T06:39:23;17.70;99.90
4530;DHT22;2277;51.626;7.516;2022-09-09T06:41:49;17.80;99.90
4530;DHT22;2277;51.626;7.516;2022-09-09T06:44:18;17.80;99.90
4530;DHT22;2277;51.626;7.516;2022-09-09T06:46:44;17.90;99.90
4530;DHT22;2277;51.626;7.516;2022-09-09T06:49:12;17.80;99.90
4530;DHT22;2277;51.626;7.516;2022-09-09T06:51:38;17.90;99.90
4530;DHT22;2277;51.626;7.516;2022-09-09T06:54:08;18.00;99.90
4530;DHT22;2277;51.626;7.516;2022-09-09T06:56:35;17.90;99.90
4530;DHT22;2277;51.626;7.516;2022-09-09T06:59:03;18.00;99.90
4530;DHT22;2277;51.626;7.516;2022-09-09T07:01:34;18.00;99.90
4530;DHT22;2277;51.626;7.516;2022-09-09T07:04:00;18.00;99.90
4530;DHT22;2277;51.626;7.516;2022-09-09T07:06:31;17.90;99.90
4530;DHT22;2277;51.626;7.516;2022-09-09T07:08:59;18.00;99.90
4530;DHT22;2277;51.626;7.516;2022-09-09T07:11:28;17.90;99.90
4530;DHT22;2277;51.626;7.516;2022-09-09T07:13:57;17.90;99.90
4530;DHT22;2277;51.626;7.516;2022-09-09T07:16:24;17.90;99.90
4530;DHT22;2277;51.626;7.516;2022-09-09T07:18:51;18.10;99.90
4530;DHT22;2277;51.626;7.516;2022-09-09T07:21:17;18.30;99.90
4530;DHT22;2277;51.626;7.516;2022-09-09T07:23:44;18.30;99.90
4530;DHT22;2277;51.626;7.516;2022-09-09T07:26:15;18.30;99.90
4530;DHT22;2277;51.626;7.516;2022-09-09T07:32:03;18.50;99.90
4530;DHT22;2277;51.626;7.516;2022-09-09T07:34:29;18.50;99.90
4530;DHT22;2277;51.626;7.516;2022-09-09T07:36:55;18.60;99.90
4530;DHT22;2277;51.626;7.516;2022-09-09T07:39:22;18.60;99.90
4530;DHT22;2277;51.626;7.516;2022-09-09T07:41:48;18.60;99.90
4530;DHT22;2277;51.626;7.516;2022-09-09T07:44:17;18.60;99.90
4530;DHT22;2277;51.626;7.516;2022-09-09T07:46:43;18.70;99.90
4530;DHT22;2277;51.626;7.516;2022-09-09T07:49:10;18.70;99.90
4530;DHT22;2277;51.626;7.516;2022-09-09T07:51:42;18.80;99.90
4530;DHT22;2277;51.626;7.516;2022-09-09T07:54:10;18.90;99.90
4530;DHT22;2277;51.626;7.516;2022-09-09T07:56:37;19.10;99.90
4530;DHT22;2277;51.626;7.516;2022-09-09T07:59:04;19.30;99.90
4530;DHT22;2277;51.626;7.516;2022-09-09T08:01:36;19.50;99.90
4530;DHT22;2277;51.626;7.516;2022-09-09T08:04:09;19.60;99.90
4530;DHT22;2277;51.626;7.516;2022-09-09T08:06:38;19.90;99.90
4530;DHT22;2277;51.626;7.516;2022-09-09T08:09:05;20.10;99.90
4530;DHT22;2277;51.626;7.516;2022-09-09T08:11:31;20.10;99.90
4530;DHT22;2277;51.626;7.516;2022-09-09T08:13:58;20.30;99.90
4530;DHT22;2277;51.626;7.516;2022-09-09T08:16:29;20.40;99.90
4530;DHT22;2277;51.626;7.516;2022-09-09T08:18:56;20.50;99.90
4530;DHT22;2277;51.626;7.516;2022-09-09T08:21:24;20.70;99.90
4530;DHT22;2277;51.626;7.516;2022-09-09T08:23:52;20.60;99.90
4530;DHT22;2277;51.626;7.516;2022-09-09T08:26:23;20.80;99.90
4530;DHT22;2277;51.626;7.516;2022-09-09T08:28:54;20.90;99.90
4530;DHT22;2277;51.626;7.516;2022-09-09T08:31:32;21.20;99.90
4530;DHT22;2277;51.626;7.516;2022-09-09T08:33:59;21.20;99.90
4530;DHT22;2277;51.626;7.516;2022-09-09T08:36:28;21.40;99.90
4530;DHT22;2277;51.626;7.516;2022-09-09T08:42:40;21.50;99.90
4530;DHT22;2277;51.626;7.516;2022-09-09T08:45:33;21.60;99.90
4530;DHT22;2277;51.626;7.516;2022-09-09T08:50:49;22.20;99.90
4530;DHT22;2277;51.626;7.516;2022-09-09T08:53:22;22.40;99.90
4530;DHT22;2277;51.626;7.516;2022-09-09T08:56:09;22.30;99.90
4530;DHT22;2277;51.626;7.516;2022-09-09T08:58:45;22.10;99.90
4530;DHT22;2277;51.626;7.516;2022-09-09T09:12:22;22.10;99.90
4530;DHT22;2277;51.626;7.516;2022-09-09T09:14:48;22.20;99.90
4530;DHT22;2277;51.626;7.516;2022-09-09T09:17:18;22.20;99.90
4530;DHT22;2277;51.626;7.516;2022-09-09T09:19:46;22.20;99.90
4530;DHT22;2277;51.626;7.516;2022-09-09T09:25:02;22.40;99.90
4530;DHT22;2277;51.626;7.516;2022-09-09T09:27:57;22.40;99.90
4530;DHT22;2277;51.626;7.516;2022-09-09T09:30:28;22.50;99.90
4530;DHT22;2277;51.626;7.516;2022-09-09T09:33:08;22.70;99.90
4530;DHT22;2277;51.626;7.516;2022-09-09T09:35:35;23.00;99.90
4530;DHT22;2277;51.626;7.516;2022-09-09T09:38:01;23.20;99.90
4530;DHT22;2277;51.626;7.516;2022-09-09T09:40:28;23.40;99.90
4530;DHT22;2277;51.626;7.516;2022-09-09T09:42:54;23.30;99.90
4530;DHT22;2277;51.626;7.516;2022-09-09T09:48:04;23.00;99.90
4530;DHT22;2277;51.626;7.516;2022-09-09T09:50:32;23.10;99.90
4530;DHT22;2277;51.626;7.516;2022-09-09T09:53:01;23.40;99.90
4530;DHT22;2277;51.626;7.516;2022-09-09T09:55:29;23.50;99.90
4530;DHT22;2277;51.626;7.516;2022-09-09T09:58:04;23.40;99.90
4530;DHT22;2277;51.626;7.516;2022-09-09T10:00:30;23.30;99.90
4530;DHT22;2277;51.626;7.516;2022-09-09T10:02:56;23.20;99.90
4530;DHT22;2277;51.626;7.516;2022-09-09T10:05:25;23.20;99.90
4530;DHT22;2277;51.626;7.516;2022-09-09T10:08:10;23.10;99.90
4530;DHT22;2277;51.626;7.516;2022-09-09T10:19:01;23.30;99.90
4530;DHT22;2277;51.626;7.516;2022-09-09T10:21:31;23.30;99.90
4530;DHT22;2277;51.626;7.516;2022-09-09T10:32:36;24.30;99.90
4530;DHT22;2277;51.626;7.516;2022-09-09T10:35:14;24.30;99.90
4530;DHT22;2277;51.626;7.516;2022-09-09T10:42:52;23.80;99.90
4530;DHT22;2277;51.626;7.516;2022-09-09T10:45:29;23.90;99.90
4530;DHT22;2277;51.626;7.516;2022-09-09T10:49:23;24.10;99.90
4530;DHT22;2277;51.626;7.516;2022-09-09T10:56:59;24.50;99.90
4530;DHT22;2277;51.626;7.516;2022-09-09T10:59:31;24.50;99.90
4530;DHT22;2277;51.626;7.516;2022-09-09T11:02:12;24.30;99.90
4530;DHT22;2277;51.626;7.516;2022-09-09T11:04:48;24.20;99.90
4530;DHT22;2277;51.626;7.516;2022-09-09T11:07:29;24.10;99.90
4530;DHT22;2277;51.626;7.516;2022-09-09T11:10:11;24.10;99.90
4530;DHT22;2277;51.626;7.516;2022-09-09T11:12:39;24.40;99.90
4530;DHT22;2277;51.626;7.516;2022-09-09T11:15:22;24.50;99.90
4530;DHT22;2277;51.626;7.516;2022-09-09T11:17:53;24.70;99.90
4530;DHT22;2277;51.626;7.516;2022-09-09T11:20:19;24.90;99.90
4530;DHT22;2277;51.626;7.516;2022-09-09T11:22:50;25.20;99.90
4530;DHT22;2277;51.626;7.516;2022-09-09T11:25:22;25.10;99.90
4530;DHT22;2277;51.626;7.516;2022-09-09T11:38:44;26.40;98.60
4530;DHT22;2277;51.626;7.516;2022-09-09T11:41:11;26.40;97.80
4530;DHT22;2277;51.626;7.516;2022-09-09T11:43:45;26.30;97.10
4530;DHT22;2277;51.626;7.516;2022-09-09T11:46:14;26.10;96.60
4530;DHT22;2277;51.626;7.516;2022-09-09T11:48:58;25.90;97.70
4530;DHT22;2277;51.626;7.516;2022-09-09T11:51:27;26.00;97.60
4530;DHT22;2277;51.626;7.516;2022-09-09T11:56:41;25.70;98.10
4530;DHT22;2277;51.626;7.516;2022-09-09T11:59:26;25.70;97.50
4530;DHT22;2277;51.626;7.516;2022-09-09T12:02:09;25.70;98.20
4530;DHT22;2277;51.626;7.516;2022-09-09T12:04:40;25.50;97.40
4530;DHT22;2277;51.626;7.516;2022-09-09T12:09:52;25.30;97.30
4530;DHT22;2277;51.626;7.516;2022-09-09T12:12:30;25.30;98.10
4530;DHT22;2277;51.626;7.516;2022-09-09T12:17:52;25.30;97.80
4530;DHT22;2277;51.626;7.516;2022-09-09T12:25:56;24.90;98.80
4530;DHT22;2277;51.626;7.516;2022-09-09T12:31:46;24.50;99.90
4530;DHT22;2277;51.626;7.516;2022-09-09T12:34:17;24.50;99.90
4530;DHT22;2277;51.626;7.516;2022-09-09T12:36:48;24.20;99.90
4530;DHT22;2277;51.626;7.516;2022-09-09T12:42:40;23.60;99.90
4530;DHT22;2277;51.626;7.516;2022-09-09T12:45:19;23.50;99.90
4530;DHT22;2277;51.626;7.516;2022-09-09T12:47:49;23.30;99.90
4530;DHT22;2277;51.626;7.516;2022-09-09T12:50:22;23.40;99.90
4530;DHT22;2277;51.626;7.516;2022-09-09T12:52:50;23.40;99.90
4530;DHT22;2277;51.626;7.516;2022-09-09T12:55:20;23.30;99.90
4530;DHT22;2277;51.626;7.516;2022-09-09T12:57:48;23.20;99.90
4530;DHT22;2277;51.626;7.516;2022-09-09T13:00:22;23.10;99.90
4530;DHT22;2277;51.626;7.516;2022-09-09T13:05:25;23.00;99.90
4530;DHT22;2277;51.626;7.516;2022-09-09T13:07:51;23.10;99.90
4530;DHT22;2277;51.626;7.516;2022-09-09T13:10:23;23.20;99.90
4530;DHT22;2277;51.626;7.516;2022-09-09T13:12:50;23.20;99.90
4530;DHT22;2277;51.626;7.516;2022-09-09T13:15:23;23.10;99.90
4530;DHT22;2277;51.626;7.516;2022-09-09T13:18:01;23.20;99.90
4530;DHT22;2277;51.626;7.516;2022-09-09T13:20:28;23.10;99.90
4530;DHT22;2277;51.626;7.516;2022-09-09T13:22:55;23.00;99.90
4530;DHT22;2277;51.626;7.516;2022-09-09T13:25:28;22.90;99.90
4530;DHT22;2277;51.626;7.516;2022-09-09T13:28:01;22.90;99.90
4530;DHT22;2277;51.626;7.516;2022-09-09T13:30:29;22.90;99.90
4530;DHT22;2277;51.626;7.516;2022-09-09T13:35:52;22.70;99.90
4530;DHT22;2277;51.626;7.516;2022-09-09T13:38:19;22.80;99.90
4530;DHT22;2277;51.626;7.516;2022-09-09T13:40:58;22.70;99.90
4530;DHT22;2277;51.626;7.516;2022-09-09T13:43:26;22.80;99.90
4530;DHT22;2277;51.626;7.516;2022-09-09T13:45:58;23.00;99.90
4530;DHT22;2277;51.626;7.516;2022-09-09T13:48:24;23.30;99.90
4530;DHT22;2277;51.626;7.516;2022-09-09T13:51:02;23.30;99.90
4530;DHT22;2277;51.626;7.516;2022-09-09T13:53:30;23.40;99.90
4530;DHT22;2277;51.626;7.516;2022-09-09T13:55:57;23.40;99.90
4530;DHT22;2277;51.626;7.516;2022-09-09T13:58:23;23.40;99.90
4530;DHT22;2277;51.626;7.516;2022-09-09T14:00:51;23.10;99.90
4530;DHT22;2277;51.626;7.516;2022-09-09T14:03:17;23.10;99.90
4530;DHT22;2277;51.626;7.516;2022-09-09T14:05:44;23.20;99.90
4530;DHT22;2277;51.626;7.516;2022-09-09T14:08:16;23.30;99.90
4530;DHT22;2277;51.626;7.516;2022-09-09T14:10:45;22.90;99.90
4530;DHT22;2277;51.626;7.516;2022-09-09T14:13:11;22.90;99.90
4530;DHT22;2277;51.626;7.516;2022-09-09T14:15:37;22.80;99.90
4530;DHT22;2277;51.626;7.516;2022-09-09T14:18:03;22.70;99.90
4530;DHT22;2277;51.626;7.516;2022-09-09T14:20:29;22.80;99.90
4530;DHT22;2277;51.626;7.516;2022-09-09T14:22:54;22.70;99.90
4530;DHT22;2277;51.626;7.516;2022-09-09T14:25:21;22.70;99.90
4530;DHT22;2277;51.626;7.516;2022-09-09T14:27:47;22.70;99.90
4530;DHT22;2277;51.626;7.516;2022-09-09T14:30:13;22.60;99.90
4530;DHT22;2277;51.626;7.516;2022-09-09T14:32:38;22.30;99.90
4530;DHT22;2277;51.626;7.516;2022-09-09T14:35:04;22.10;99.90
4530;DHT22;2277;51.626;7.516;2022-09-09T14:37:30;21.90;99.90
4530;DHT22;2277;51.626;7.516;2022-09-09T14:39:57;21.70;99.90
4530;DHT22;2277;51.626;7.516;2022-09-09T14:42:22;21.60;99.90
4530;DHT22;2277;51.626;7.516;2022-09-09T14:44:48;21.50;99.90
4530;DHT22;2277;51.626;7.516;2022-09-09T14:47:14;21.40;99.90
4530;DHT22;2277;51.626;7.516;2022-09-09T14:49:39;21.40;99.90
4530;DHT22;2277;51.626;7.516;2022-09-09T14:52:05;21.40;99.90
4530;DHT22;2277;51.626;7.516;2022-09-09T14:54:31;21.50;99.90
4530;DHT22;2277;51.626;7.516;2022-09-09T14:56:57;21.60;99.90
4530;DHT22;2277;51.626;7.516;2022-09-09T15:02:45;22.00;99.90
4530;DHT22;2277;51.626;7.516;2022-09-09T15:05:11;22.00;99.90
4530;DHT22;2277;51.626;7.516;2022-09-09T15:07:36;22.10;99.90
4530;DHT22;2277;51.626;7.516;2022-09-09T15:10:03;22.20;99.90
4530;DHT22;2277;51.626;7.516;2022-09-09T15:12:29;22.20;99.90
4530;DHT22;2277;51.626;7.516;2022-09-09T15:14:55;22.20;99.90
4530;DHT22;2277;51.626;7.516;2022-09-09T15:17:21;22.20;99.90
4530;DHT22;2277;51.626;7.516;2022-09-09T15:19:47;22.20;99.90
4530;DHT22;2277;51.626;7.516;2022-09-09T15:22:12;22.20;99.90
4530;DHT22;2277;51.626;7.516;2022-09-09T15:24:38;22.10;99.90
4530;DHT22;2277;51.626;7.516;2022-09-09T15:27:04;22.10;99.90
4530;DHT22;2277;51.626;7.516;2022-09-09T15:29:29;22.10;99.90
4530;DHT22;2277;51.626;7.516;2022-09-09T15:31:55;21.90;99.90
4530;DHT22;2277;51.626;7.516;2022-09-09T15:34:21;21.80;99.90
4530;DHT22;2277;51.626;7.516;2022-09-09T15:36:47;21.80;99.90
4530;DHT22;2277;51.626;7.516;2022-09-09T15:39:14;21.70;99.90
4530;DHT22;2277;51.626;7.516;2022-09-09T15:41:45;21.70;99.90
4530;DHT22;2277;51.626;7.516;2022-09-09T15:44:11;21.50;99.90
4530;DHT22;2277;51.626;7.516;2022-09-09T15:46:43;21.50;99.90
4530;DHT22;2277;51.626;7.516;2022-09-09T15:49:14;21.40;99.90
4530;DHT22;2277;51.626;7.516;2022-09-09T15:51:42;21.40;99.90
4530;DHT22;2277;51.626;7.516;2022-09-09T15:54:09;21.60;99.90
4530;DHT22;2277;51.626;7.516;2022-09-09T15:56:35;21.50;99.90
4530;DHT22;2277;51.626;7.516;2022-09-09T15:59:01;21.10;99.90
4530;DHT22;2277;51.626;7.516;2022-09-09T16:01:29;20.70;99.90
4530;DHT22;2277;51.626;7.516;2022-09-09T16:03:56;20.10;99.90
4530;DHT22;2277;51.626;7.516;2022-09-09T16:06:23;19.80;99.90
4530;DHT22;2277;51.626;7.516;2022-09-09T16:08:51;19.60;99.90
4530;DHT22;2277;51.626;7.516;2022-09-09T16:11:22;19.50;99.90
4530;DHT22;2277;51.626;7.516;2022-09-09T16:13:52;19.60;99.90
4530;DHT22;2277;51.626;7.516;2022-09-09T16:16:23;19.50;99.90
4530;DHT22;2277;51.626;7.516;2022-09-09T16:18:57;19.50;99.90
4530;DHT22;2277;51.626;7.516;2022-09-09T16:21:32;19.40;99.90
4530;DHT22;2277;51.626;7.516;2022-09-09T16:23:59;19.40;99.90
4530;DHT22;2277;51.626;7.516;2022-09-09T16:26:30;19.40;99.90
4530;DHT22;2277;51.626;7.516;2022-09-09T16:28:56;19.20;99.90
4530;DHT22;2277;51.626;7.516;2022-09-09T16:31:24;19.10;99.90
4530;DHT22;2277;51.626;7.516;2022-09-09T16:33:50;18.70;99.90
4530;DHT22;2277;51.626;7.516;2022-09-09T16:36:20;18.60;99.90
4530;DHT22;2277;51.626;7.516;2022-09-09T16:38:46;18.60;99.90
4530;DHT22;2277;51.626;7.516;2022-09-09T16:41:12;18.70;99.90
4530;DHT22;2277;51.626;7.516;2022-09-09T16:43:39;18.60;99.90
4530;DHT22;2277;51.626;7.516;2022-09-09T16:46:33;18.50;99.90
4530;DHT22;2277;51.626;7.516;2022-09-09T16:49:00;18.50;99.90
4530;DHT22;2277;51.626;7.516;2022-09-09T16:51:34;18.50;99.90
4530;DHT22;2277;51.626;7.516;2022-09-09T16:54:02;18.60;99.90
4530;DHT22;2277;51.626;7.516;2022-09-09T16:56:31;18.50;99.90
4530;DHT22;2277;51.626;7.516;2022-09-09T16:59:03;18.40;99.90
4530;DHT22;2277;51.626;7.516;2022-09-09T17:01:32;18.40;99.90
4530;DHT22;2277;51.626;7.516;2022-09-09T17:04:03;18.40;99.90
4530;DHT22;2277;51.626;7.516;2022-09-09T17:06:30;18.30;99.90
4530;DHT22;2277;51.626;7.516;2022-09-09T17:08:59;18.30;99.90
4530;DHT22;2277;51.626;7.516;2022-09-09T17:11:27;18.30;99.90
4530;DHT22;2277;51.626;7.516;2022-09-09T17:13:53;18.30;99.90
4530;DHT22;2277;51.626;7.516;2022-09-09T17:16:20;18.20;99.90
4530;DHT22;2277;51.626;7.516;2022-09-09T17:18:50;18.20;99.90
4530;DHT22;2277;51.626;7.516;2022-09-09T17:21:18;18.30;99.90
4530;DHT22;2277;51.626;7.516;2022-09-09T17:23:45;18.10;99.90
4530;DHT22;2277;51.626;7.516;2022-09-09T17:26:13;18.10;99.90
4530;DHT22;2277;51.626;7.516;2022-09-09T17:28:40;18.10;99.90
4530;DHT22;2277;51.626;7.516;2022-09-09T17:31:07;18.00;99.90
4530;DHT22;2277;51.626;7.516;2022-09-09T17:33:36;18.00;99.90
4530;DHT22;2277;51.626;7.516;2022-09-09T17:36:10;18.10;99.90
4530;DHT22;2277;51.626;7.516;2022-09-09T17:38:37;18.00;99.90
4530;DHT22;2277;51.626;7.516;2022-09-09T17:41:14;18.10;99.90
4530;DHT22;2277;51.626;7.516;2022-09-09T17:43:41;18.10;99.90
4530;DHT22;2277;51.626;7.516;2022-09-09T17:46:10;18.00;99.90
4530;DHT22;2277;51.626;7.516;2022-09-09T17:48:36;18.00;99.90
4530;DHT22;2277;51.626;7.516;2022-09-09T17:51:04;17.80;99.90
4530;DHT22;2277;51.626;7.516;2022-09-09T17:53:35;17.80;99.90
4530;DHT22;2277;51.626;7.516;2022-09-09T17:56:03;17.80;99.90
4530;DHT22;2277;51.626;7.516;2022-09-09T17:58:29;17.80;99.90
4530;DHT22;2277;51.626;7.516;2022-09-09T18:00:55;17.80;99.90
4530;DHT22;2277;51.626;7.516;2022-09-09T18:03:20;17.80;99.90
4530;DHT22;2277;51.626;7.516;2022-09-09T18:05:46;17.80;99.90
4530;DHT22;2277;51.626;7.516;2022-09-09T18:08:12;17.70;99.90
4530;DHT22;2277;51.626;7.516;2022-09-09T18:10:38;17.70;99.90
4530;DHT22;2277;51.626;7.516;2022-09-09T18:13:03;17.80;99.90
4530;DHT22;2277;51.626;7.516;2022-09-09T18:15:31;17.70;99.90
4530;DHT22;2277;51.626;7.516;2022-09-09T18:18:00;17.70;99.90
4530;DHT22;2277;51.626;7.516;2022-09-09T18:20:27;17.70;99.90
4530;DHT22;2277;51.626;7.516;2022-09-09T18:22:53;17.80;99.90
4530;DHT22;2277;51.626;7.516;2022-09-09T18:25:18;17.80;99.90
4530;DHT22;2277;51.626;7.516;2022-09-09T18:27:44;17.90;99.90
4530;DHT22;2277;51.626;7.516;2022-09-09T18:30:10;17.90;99.90
4530;DHT22;2277;51.626;7.516;2022-09-09T18:32:35;17.90;99.90
4530;DHT22;2277;51.626;7.516;2022-09-09T18:35:01;17.80;99.90
4530;DHT22;2277;51.626;7.516;2022-09-09T18:37:27;17.90;99.90
4530;DHT22;2277;51.626;7.516;2022-09-09T18:39:52;17.90;99.90